sensor_id;sensor_type;location;lat;lon;timestamp;pressure;altitude;pressure_sealevel;temperature;humidity
16255;BME280;8235;52.198;9.904;2022-09-03T00:00:54;100852.59;;;14.83;54.06
16255;BME280;8235;52.198;9.904;2022-09-03T00:03:25;100844.66;;;14.81;54.01
16255;BME280;8235;52.198;9.904;2022-09-03T00:06:00;100845.63;;;14.80;54.10
16255;BME280;8235;52.198;9.904;2022-09-03T00:08:32;100841.47;;;14.76;54.02
16255;BME280;8235;52.198;9.904;2022-09-03T00:11:04;100835.72;;;14.70;54.66
16255;BME280;8235;52.198;9.904;2022-09-03T00:13:35;100829.38;;;14.59;54.84
16255;BME280;8235;52.198;9.904;2022-09-03T00:16:07;100830.97;;;14.51;54.92
16255;BME280;8235;52.198;9.904;2022-09-03T00:18:41;100825.22;;;14.44;55.61
16255;BME280;8235;52.198;9.904;2022-09-03T00:21:11;100826.59;;;14.37;55.42
16255;BME280;8235;52.198;9.904;2022-09-03T00:23:41;100825.13;;;14.33;55.88
16255;BME280;8235;52.198;9.904;2022-09-03T00:26:17;100819.28;;;14.28;55.99
16255;BME280;8235;52.198;9.904;2022-09-03T00:28:50;100823.03;;;14.25;56.00
16255;BME280;8235;52.198;9.904;2022-09-03T00:31:24;100821.44;;;14.23;56.30
16255;BME280;8235;52.198;9.904;2022-09-03T00:33:55;100824.25;;;14.21;56.81
16255;BME280;8235;52.198;9.904;2022-09-03T00:36:27;100827.03;;;14.20;56.44
16255;BME280;8235;52.198;9.904;2022-09-03T00:38:57;100826.91;;;14.21;56.79
16255;BME280;8235;52.198;9.904;2022-09-03T00:41:29;100819.75;;;14.22;56.81
16255;BME280;8235;52.198;9.904;2022-09-03T00:44:11;100818.88;;;14.21;56.74
16255;BME280;8235;52.198;9.904;2022-09-03T00:46:44;100816.19;;;14.21;56.98
16255;BME280;8235;52.198;9.904;2022-09-03T00:49:26;100816.19;;;14.21;57.12
16255;BME280;8235;52.198;9.904;2022-09-03T00:52:03;100822.53;;;14.20;57.16
16255;BME280;8235;52.198;9.904;2022-09-03T00:54:42;100812.78;;;14.19;57.18
16255;BME280;8235;52.198;9.904;2022-09-03T00:57:22;100812.03;;;14.17;56.97
16255;BME280;8235;52.198;9.904;2022-09-03T00:59:57;100808.63;;;14.15;57.11
16255;BME280;8235;52.198;9.904;2022-09-03T01:02:34;100811.44;;;14.14;57.31
16255;BME280;8235;52.198;9.904;2022-09-03T01:05:10;100810.72;;;14.12;57.35
16255;BME280;8235;52.198;9.904;2022-09-03T01:07:40;100815.44;;;14.08;57.63
16255;BME280;8235;52.198;9.904;2022-09-03T01:10:17;100811.16;;;14.06;57.71
16255;BME280;8235;52.198;9.904;2022-09-03T01:12:53;100811.28;;;14.04;57.99
16255;BME280;8235;52.198;9.904;2022-09-03T01:15:27;100821.34;;;14.01;58.04
16255;BME280;8235;52.198;9.904;2022-09-03T01:18:09;100811.72;;;13.98;57.74
16255;BME280;8235;52.198;9.904;2022-09-03T01:20:48;100818.19;;;13.96;58.13
16255;BME280;8235;52.198;9.904;2022-09-03T01:23:36;100818.41;;;13.93;58.15
16255;BME280;8235;52.198;9.904;2022-09-03T01:26:40;100818.63;;;13.89;58.00
16255;BME280;8235;52.198;9.904;2022-09-03T01:29:19;100818.84;;;13.86;58.08
16255;BME280;8235;52.198;9.904;2022-09-03T01:31:58;100818.22;;;13.83;58.50
16255;BME280;8235;52.198;9.904;2022-09-03T01:34:35;100815.66;;;13.81;58.68
16255;BME280;8235;52.198;9.904;2022-09-03T01:37:14;100821.25;;;13.78;58.89
16255;BME280;8235;52.198;9.904;2022-09-03T01:39:52;100823.19;;;13.76;58.82
16255;BME280;8235;52.198;9.904;2022-09-03T01:42:26;100825.97;;;13.75;58.97
16255;BME280;8235;52.198;9.904;2022-09-03T01:45:28;100822.56;;;13.73;58.56
16255;BME280;8235;52.198;9.904;2022-09-03T01:48:09;100824.50;;;13.71;58.94
16255;BME280;8235;52.198;9.904;2022-09-03T01:50:45;100831.66;;;13.70;59.15
16255;BME280;8235;52.198;9.904;2022-09-03T01:53:24;100823.75;;;13.69;59.25
16255;BME280;8235;52.198;9.904;2022-09-03T01:56:06;100833.72;;;13.67;58.78
16255;BME280;8235;52.198;9.904;2022-09-03T01:58:41;100824.94;;;13.65;59.48
16255;BME280;8235;52.198;9.904;2022-09-03T02:01:15;100824.19;;;13.63;59.26
16255;BME280;8235;52.198;9.904;2022-09-03T02:03:44;100821.66;;;13.61;59.53
16255;BME280;8235;52.198;9.904;2022-09-03T02:06:11;100833.31;;;13.60;59.27
16255;BME280;8235;52.198;9.904;2022-09-03T02:08:37;100827.22;;;13.58;59.51
16255;BME280;8235;52.198;9.904;2022-09-03T02:11:07;100832.69;;;13.57;59.91
16255;BME280;8235;52.198;9.904;2022-09-03T02:13:37;100830.97;;;13.55;59.49
16255;BME280;8235;52.198;9.904;2022-09-03T02:16:09;100828.41;;;13.54;59.46
16255;BME280;8235;52.198;9.904;2022-09-03T02:18:40;100822.31;;;13.52;60.03
16255;BME280;8235;52.198;9.904;2022-09-03T02:21:08;100826.91;;;13.50;60.10
16255;BME280;8235;52.198;9.904;2022-09-03T02:23:38;100830.56;;;13.49;59.82
16255;BME280;8235;52.198;9.904;2022-09-03T02:26:05;100830.66;;;13.47;60.16
16255;BME280;8235;52.198;9.904;2022-09-03T02:28:33;100829.91;;;13.45;59.98
16255;BME280;8235;52.198;9.904;2022-09-03T02:31:00;100827.34;;;13.44;60.11
16255;BME280;8235;52.198;9.904;2022-09-03T02:33:27;100833.69;;;13.43;60.20
16255;BME280;8235;52.198;9.904;2022-09-03T02:35:54;100827.59;;;13.41;60.20
16255;BME280;8235;52.198;9.904;2022-09-03T02:38:23;100826.72;;;13.40;60.43
16255;BME280;8235;52.198;9.904;2022-09-03T02:40:50;100817.97;;;13.38;60.11
16255;BME280;8235;52.198;9.904;2022-09-03T02:43:21;100821.72;;;13.36;60.07
16255;BME280;8235;52.198;9.904;2022-09-03T02:45:51;100821.94;;;13.33;60.42
16255;BME280;8235;52.198;9.904;2022-09-03T02:48:22;100827.59;;;13.28;60.22
16255;BME280;8235;52.198;9.904;2022-09-03T02:50:49;100825.28;;;13.24;60.47
16255;BME280;8235;52.198;9.904;2022-09-03T02:53:16;100827.19;;;13.22;61.03
16255;BME280;8235;52.198;9.904;2022-09-03T02:55:43;100827.41;;;13.18;61.15
16255;BME280;8235;52.198;9.904;2022-09-03T02:58:10;100823.13;;;13.16;60.93
16255;BME280;8235;52.198;9.904;2022-09-03T03:00:36;100822.28;;;13.15;61.34
16255;BME280;8235;52.198;9.904;2022-09-03T03:03:03;100824.94;;;13.15;61.13
16255;BME280;8235;52.198;9.904;2022-09-03T03:05:35;100827.69;;;13.14;61.45
16255;BME280;8235;52.198;9.904;2022-09-03T03:08:06;100825.13;;;13.12;61.47
16255;BME280;8235;52.198;9.904;2022-09-03T03:10:34;100819.88;;;13.11;61.82
16255;BME280;8235;52.198;9.904;2022-09-03T03:13:02;100824.50;;;13.09;61.70
16255;BME280;8235;52.198;9.904;2022-09-03T03:15:28;100820.00;;;13.09;61.68
16255;BME280;8235;52.198;9.904;2022-09-03T03:17:55;100828.03;;;13.09;61.89
16255;BME280;8235;52.198;9.904;2022-09-03T03:20:22;100820.97;;;13.08;61.63
16255;BME280;8235;52.198;9.904;2022-09-03T03:22:49;100815.63;;;13.08;61.66
16255;BME280;8235;52.198;9.904;2022-09-03T03:25:16;100815.63;;;13.08;61.64
16255;BME280;8235;52.198;9.904;2022-09-03T03:27:43;100815.63;;;13.08;61.95
16255;BME280;8235;52.198;9.904;2022-09-03T03:30:11;100819.28;;;13.07;62.07
16255;BME280;8235;52.198;9.904;2022-09-03T03:32:38;100816.72;;;13.06;61.87
16255;BME280;8235;52.198;9.904;2022-09-03T03:35:06;100818.53;;;13.05;61.99
16255;BME280;8235;52.198;9.904;2022-09-03T03:37:33;100820.34;;;13.05;62.02
16255;BME280;8235;52.198;9.904;2022-09-03T03:40:00;100813.28;;;13.04;62.11
16255;BME280;8235;52.198;9.904;2022-09-03T03:42:26;100817.78;;;13.03;61.97
16255;BME280;8235;52.198;9.904;2022-09-03T03:44:54;100823.13;;;13.03;62.10
16255;BME280;8235;52.198;9.904;2022-09-03T03:47:21;100815.22;;;13.02;62.47
16255;BME280;8235;52.198;9.904;2022-09-03T03:49:48;100821.41;;;13.02;62.25
16255;BME280;8235;52.198;9.904;2022-09-03T03:52:15;100816.28;;;12.99;62.53
16255;BME280;8235;52.198;9.904;2022-09-03T03:54:41;100821.63;;;12.99;62.34
16255;BME280;8235;52.198;9.904;2022-09-03T03:57:08;100817.25;;;12.98;62.47
16255;BME280;8235;52.198;9.904;2022-09-03T03:59:34;100812.00;;;12.97;62.67
16255;BME280;8235;52.198;9.904;2022-09-03T04:02:02;100812.00;;;12.97;62.64
16255;BME280;8235;52.198;9.904;2022-09-03T04:04:28;100809.53;;;12.94;62.49
16255;BME280;8235;52.198;9.904;2022-09-03T04:06:55;100815.00;;;12.92;62.63
16255;BME280;8235;52.198;9.904;2022-09-03T04:09:21;100818.63;;;12.91;62.72
16255;BME280;8235;52.198;9.904;2022-09-03T04:11:48;100819.72;;;12.89;62.57
16255;BME280;8235;52.198;9.904;2022-09-03T04:14:15;100827.84;;;12.87;63.00
16255;BME280;8235;52.198;9.904;2022-09-03T04:16:42;100829.75;;;12.85;62.95
16255;BME280;8235;52.198;9.904;2022-09-03T04:19:12;100824.41;;;12.85;63.11
16255;BME280;8235;52.198;9.904;2022-09-03T04:21:39;100814.78;;;12.82;63.11
16255;BME280;8235;52.198;9.904;2022-09-03T04:24:05;100814.03;;;12.80;63.20
16255;BME280;8235;52.198;9.904;2022-09-03T04:26:32;100811.47;;;12.79;63.44
16255;BME280;8235;52.198;9.904;2022-09-03T04:29:00;100809.00;;;12.76;63.57
16255;BME280;8235;52.198;9.904;2022-09-03T04:31:27;100818.34;;;12.70;63.59
16255;BME280;8235;52.198;9.904;2022-09-03T04:33:54;100816.06;;;12.64;63.46
16255;BME280;8235;52.198;9.904;2022-09-03T04:36:24;100813.72;;;12.60;63.94
16255;BME280;8235;52.198;9.904;2022-09-03T04:38:53;100815.84;;;12.55;64.12
16255;BME280;8235;52.198;9.904;2022-09-03T04:41:22;100819.59;;;12.52;64.44
16255;BME280;8235;52.198;9.904;2022-09-03T04:43:49;100813.59;;;12.48;64.53
16255;BME280;8235;52.198;9.904;2022-09-03T04:46:17;100809.22;;;12.47;64.92
16255;BME280;8235;52.198;9.904;2022-09-03T04:48:47;100812.00;;;12.46;64.94
16255;BME280;8235;52.198;9.904;2022-09-03T04:51:16;100816.50;;;12.45;65.11
16255;BME280;8235;52.198;9.904;2022-09-03T04:53:46;100814.88;;;12.43;64.97
16255;BME280;8235;52.198;9.904;2022-09-03T04:56:15;100810.50;;;12.42;65.04
16255;BME280;8235;52.198;9.904;2022-09-03T04:58:42;100809.75;;;12.40;64.69
16255;BME280;8235;52.198;9.904;2022-09-03T05:01:10;100811.75;;;12.36;64.82
16255;BME280;8235;52.198;9.904;2022-09-03T05:03:37;100817.00;;;12.38;65.08
16255;BME280;8235;52.198;9.904;2022-09-03T05:06:04;100812.63;;;12.37;65.14
16255;BME280;8235;52.198;9.904;2022-09-03T05:08:32;100817.84;;;12.38;64.98
16255;BME280;8235;52.198;9.904;2022-09-03T05:11:02;100817.00;;;12.38;64.96
16255;BME280;8235;52.198;9.904;2022-09-03T05:13:29;100818.59;;;12.40;65.18
16255;BME280;8235;52.198;9.904;2022-09-03T05:15:58;100818.50;;;12.42;64.92
16255;BME280;8235;52.198;9.904;2022-09-03T05:18:26;100814.97;;;12.41;65.21
16255;BME280;8235;52.198;9.904;2022-09-03T05:20:57;100817.75;;;12.40;65.35
16255;BME280;8235;52.198;9.904;2022-09-03T05:23:25;100818.72;;;12.39;65.40
16255;BME280;8235;52.198;9.904;2022-09-03T05:25:54;100816.03;;;12.39;65.25
16255;BME280;8235;52.198;9.904;2022-09-03T05:28:23;100815.19;;;12.38;65.41
16255;BME280;8235;52.198;9.904;2022-09-03T05:30:57;100807.16;;;12.38;65.44
16255;BME280;8235;52.198;9.904;2022-09-03T05:33:24;100809.09;;;12.36;65.74
16255;BME280;8235;52.198;9.904;2022-09-03T05:35:52;100809.84;;;12.38;65.71
16255;BME280;8235;52.198;9.904;2022-09-03T05:38:19;100818.59;;;12.40;65.98
16255;BME280;8235;52.198;9.904;2022-09-03T05:40:45;100816.59;;;12.44;65.93
16255;BME280;8235;52.198;9.904;2022-09-03T05:43:12;100813.59;;;12.48;66.50
16255;BME280;8235;52.198;9.904;2022-09-03T05:45:40;100816.81;;;12.54;66.07
16255;BME280;8235;52.198;9.904;2022-09-03T05:48:07;100817.34;;;12.59;66.34
16255;BME280;8235;52.198;9.904;2022-09-03T05:50:33;100811.69;;;12.63;66.04
16255;BME280;8235;52.198;9.904;2022-09-03T05:53:00;100807.75;;;12.69;66.65
16255;BME280;8235;52.198;9.904;2022-09-03T05:55:26;100814.34;;;12.76;66.55
16255;BME280;8235;52.198;9.904;2022-09-03T05:57:53;100814.78;;;12.82;66.67
16255;BME280;8235;52.198;9.904;2022-09-03T06:00:20;100808.19;;;12.88;66.85
16255;BME280;8235;52.198;9.904;2022-09-03T06:02:50;100800.44;;;12.96;66.69
16255;BME280;8235;52.198;9.904;2022-09-03T06:05:18;100800.78;;;13.04;66.71
16255;BME280;8235;52.198;9.904;2022-09-03T06:07:44;100801.06;;;13.12;66.53
16255;BME280;8235;52.198;9.904;2022-09-03T06:10:13;100811.16;;;13.22;66.27
16255;BME280;8235;52.198;9.904;2022-09-03T06:12:40;100818.41;;;13.32;66.27
16255;BME280;8235;52.198;9.904;2022-09-03T06:15:09;100814.09;;;13.42;66.26
16255;BME280;8235;52.198;9.904;2022-09-03T06:17:36;100809.78;;;13.52;66.15
16255;BME280;8235;52.198;9.904;2022-09-03T06:20:05;100809.84;;;13.64;65.81
16255;BME280;8235;52.198;9.904;2022-09-03T06:22:32;100801.88;;;13.75;65.12
16255;BME280;8235;52.198;9.904;2022-09-03T06:24:59;100806.44;;;13.85;64.94
16255;BME280;8235;52.198;9.904;2022-09-03T06:27:27;100801.25;;;13.95;64.94
16255;BME280;8235;52.198;9.904;2022-09-03T06:29:54;100803.13;;;14.06;64.53
16255;BME280;8235;52.198;9.904;2022-09-03T06:32:22;100807.53;;;14.18;64.61
16255;BME280;8235;52.198;9.904;2022-09-03T06:34:49;100806.84;;;14.27;63.51
16255;BME280;8235;52.198;9.904;2022-09-03T06:37:17;100806.13;;;14.36;63.39
16255;BME280;8235;52.198;9.904;2022-09-03T06:39:43;100801.84;;;14.46;63.50
16255;BME280;8235;52.198;9.904;2022-09-03T06:42:10;100806.34;;;14.57;63.26
16255;BME280;8235;52.198;9.904;2022-09-03T06:44:37;100805.38;;;14.69;62.73
16255;BME280;8235;52.198;9.904;2022-09-03T06:47:04;100808.97;;;14.81;62.46
16255;BME280;8235;52.198;9.904;2022-09-03T06:49:30;100802.50;;;14.94;62.30
16255;BME280;8235;52.198;9.904;2022-09-03T06:51:57;100797.75;;;15.09;61.59
16255;BME280;8235;52.198;9.904;2022-09-03T06:54:25;100803.97;;;15.21;61.68
16255;BME280;8235;52.198;9.904;2022-09-03T06:56:51;100803.84;;;15.34;61.15
16255;BME280;8235;52.198;9.904;2022-09-03T06:59:18;100800.16;;;15.46;60.43
16255;BME280;8235;52.198;9.904;2022-09-03T07:01:45;100792.00;;;15.58;60.09
16255;BME280;8235;52.198;9.904;2022-09-03T07:04:13;100797.94;;;15.73;60.07
16255;BME280;8235;52.198;9.904;2022-09-03T07:06:40;100793.38;;;15.85;59.18
16255;BME280;8235;52.198;9.904;2022-09-03T07:09:09;100802.22;;;15.96;58.82
16255;BME280;8235;52.198;9.904;2022-09-03T07:11:37;100800.97;;;16.12;58.58
16255;BME280;8235;52.198;9.904;2022-09-03T07:14:10;100805.56;;;16.21;57.65
16255;BME280;8235;52.198;9.904;2022-09-03T07:16:38;100806.75;;;16.28;57.19
16255;BME280;8235;52.198;9.904;2022-09-03T07:19:06;100798.16;;;16.34;56.99
16255;BME280;8235;52.198;9.904;2022-09-03T07:21:34;100795.22;;;16.37;56.67
16255;BME280;8235;52.198;9.904;2022-09-03T07:24:02;100804.97;;;16.38;56.42
16255;BME280;8235;52.198;9.904;2022-09-03T07:26:31;100799.47;;;16.40;56.25
16255;BME280;8235;52.198;9.904;2022-09-03T07:29:00;100799.34;;;16.41;56.25
16255;BME280;8235;52.198;9.904;2022-09-03T07:31:28;100809.84;;;16.44;56.16
16255;BME280;8235;52.198;9.904;2022-09-03T07:33:56;100805.75;;;16.50;56.35
16255;BME280;8235;52.198;9.904;2022-09-03T07:36:25;100804.38;;;16.55;56.08
16255;BME280;8235;52.198;9.904;2022-09-03T07:38:54;100799.25;;;16.63;56.45
16255;BME280;8235;52.198;9.904;2022-09-03T07:41:22;100804.81;;;16.72;56.40
16255;BME280;8235;52.198;9.904;2022-09-03T07:43:49;100792.66;;;16.77;56.05
16255;BME280;8235;52.198;9.904;2022-09-03T07:46:19;100792.28;;;16.82;55.56
16255;BME280;8235;52.198;9.904;2022-09-03T07:48:48;100793.69;;;16.86;55.87
16255;BME280;8235;52.198;9.904;2022-09-03T07:51:15;100793.03;;;16.93;55.84
16255;BME280;8235;52.198;9.904;2022-09-03T07:53:43;100799.44;;;17.02;56.12
16255;BME280;8235;52.198;9.904;2022-09-03T07:56:10;100801.31;;;17.11;56.01
16255;BME280;8235;52.198;9.904;2022-09-03T07:58:41;100802.34;;;17.20;55.47
16255;BME280;8235;52.198;9.904;2022-09-03T08:01:09;100796.56;;;17.24;54.95
16255;BME280;8235;52.198;9.904;2022-09-03T08:03:38;100802.66;;;17.26;54.09
16255;BME280;8235;52.198;9.904;2022-09-03T08:06:06;100806.06;;;17.28;54.08
16255;BME280;8235;52.198;9.904;2022-09-03T08:08:33;100805.66;;;17.33;54.06
16255;BME280;8235;52.198;9.904;2022-09-03T08:11:06;100802.56;;;17.38;54.25
16255;BME280;8235;52.198;9.904;2022-09-03T08:16:02;100811.09;;;17.52;53.88
16255;BME280;8235;52.198;9.904;2022-09-03T08:18:29;100809.41;;;17.61;53.69
16255;BME280;8235;52.198;9.904;2022-09-03T08:21:00;100808.63;;;17.70;53.43
16255;BME280;8235;52.198;9.904;2022-09-03T08:23:27;100815.84;;;17.79;53.16
16255;BME280;8235;52.198;9.904;2022-09-03T08:25:57;100806.81;;;17.90;53.14
16255;BME280;8235;52.198;9.904;2022-09-03T08:28:24;100799.00;;;17.96;52.50
16255;BME280;8235;52.198;9.904;2022-09-03T08:30:50;100810.09;;;18.03;52.40
16255;BME280;8235;52.198;9.904;2022-09-03T08:33:17;100804.69;;;18.13;52.20
16255;BME280;8235;52.198;9.904;2022-09-03T08:36:03;100814.34;;;18.25;52.34
16255;BME280;8235;52.198;9.904;2022-09-03T08:38:30;100801.69;;;18.35;51.75
16255;BME280;8235;52.198;9.904;2022-09-03T08:41:06;100800.84;;;18.44;51.50
16255;BME280;8235;52.198;9.904;2022-09-03T08:43:44;100805.78;;;18.58;51.33
16255;BME280;8235;52.198;9.904;2022-09-03T08:46:16;100803.38;;;18.75;51.04
16255;BME280;8235;52.198;9.904;2022-09-03T08:48:43;100803.88;;;18.88;50.55
16255;BME280;8235;52.198;9.904;2022-09-03T08:51:13;100806.81;;;19.04;49.64
16255;BME280;8235;52.198;9.904;2022-09-03T08:53:45;100805.94;;;19.13;49.15
16255;BME280;8235;52.198;9.904;2022-09-03T08:56:17;100795.38;;;19.20;48.50
16255;BME280;8235;52.198;9.904;2022-09-03T08:58:46;100803.59;;;19.28;48.46
16255;BME280;8235;52.198;9.904;2022-09-03T09:01:16;100790.19;;;19.36;48.32
16255;BME280;8235;52.198;9.904;2022-09-03T09:03:52;100792.28;;;19.52;48.72
16255;BME280;8235;52.198;9.904;2022-09-03T09:06:31;100791.47;;;19.69;48.01
16255;BME280;8235;52.198;9.904;2022-09-03T09:09:09;100790.94;;;19.83;47.54
16255;BME280;8235;52.198;9.904;2022-09-03T09:11:56;100785.28;;;19.94;46.99
16255;BME280;8235;52.198;9.904;2022-09-03T09:14:29;100782.53;;;20.04;46.06
16255;BME280;8235;52.198;9.904;2022-09-03T09:17:01;100773.63;;;20.11;45.71
16255;BME280;8235;52.198;9.904;2022-09-03T09:19:43;100772.75;;;20.29;45.55
16255;BME280;8235;52.198;9.904;2022-09-03T09:22:23;100774.91;;;20.43;45.03
16255;BME280;8235;52.198;9.904;2022-09-03T09:24:55;100777.78;;;20.59;44.70
16255;BME280;8235;52.198;9.904;2022-09-03T09:27:24;100767.19;;;20.74;44.51
16255;BME280;8235;52.198;9.904;2022-09-03T09:29:52;100764.91;;;20.87;43.79
16255;BME280;8235;52.198;9.904;2022-09-03T09:32:20;100774.94;;;20.95;43.12
16255;BME280;8235;52.198;9.904;2022-09-03T09:34:46;100766.84;;;21.03;42.61
16255;BME280;8235;52.198;9.904;2022-09-03T09:37:16;100766.03;;;21.10;42.36
16255;BME280;8235;52.198;9.904;2022-09-03T09:39:53;100755.63;;;21.24;42.23
16255;BME280;8235;52.198;9.904;2022-09-03T09:42:21;100753.31;;;21.37;42.02
16255;BME280;8235;52.198;9.904;2022-09-03T09:44:48;100752.84;;;21.50;41.56
16255;BME280;8235;52.198;9.904;2022-09-03T09:47:21;100746.94;;;21.62;41.39
16255;BME280;8235;52.198;9.904;2022-09-03T09:49:52;100755.59;;;21.74;41.05
16255;BME280;8235;52.198;9.904;2022-09-03T09:52:21;100744.09;;;21.80;40.58
16255;BME280;8235;52.198;9.904;2022-09-03T09:54:51;100730.91;;;21.85;39.94
16255;BME280;8235;52.198;9.904;2022-09-03T09:57:22;100734.94;;;21.89;39.96
16255;BME280;8235;52.198;9.904;2022-09-03T09:59:49;100729.88;;;21.94;39.66
16255;BME280;8235;52.198;9.904;2022-09-03T10:02:19;100740.09;;;22.00;39.83
16255;BME280;8235;52.198;9.904;2022-09-03T10:04:51;100738.06;;;22.02;39.51
16255;BME280;8235;52.198;9.904;2022-09-03T10:07:24;100733.81;;;22.08;39.67
16255;BME280;8235;52.198;9.904;2022-09-03T10:10:02;100736.00;;;22.12;39.16
16255;BME280;8235;52.198;9.904;2022-09-03T10:12:35;100740.41;;;22.13;39.18
16255;BME280;8235;52.198;9.904;2022-09-03T10:15:21;100739.25;;;22.16;38.88
16255;BME280;8235;52.198;9.904;2022-09-03T10:17:56;100730.59;;;22.21;38.52
16255;BME280;8235;52.198;9.904;2022-09-03T10:20:32;100730.75;;;22.27;38.81
16255;BME280;8235;52.198;9.904;2022-09-03T10:23:08;100732.94;;;22.32;38.35
16255;BME280;8235;52.198;9.904;2022-09-03T10:25:40;100725.00;;;22.38;38.30
16255;BME280;8235;52.198;9.904;2022-09-03T10:28:12;100723.25;;;22.45;37.79
16255;BME280;8235;52.198;9.904;2022-09-03T10:30:50;100725.97;;;22.54;38.13
16255;BME280;8235;52.198;9.904;2022-09-03T10:33:25;100715.63;;;22.57;37.72
16255;BME280;8235;52.198;9.904;2022-09-03T10:36:04;100732.38;;;22.69;38.02
16255;BME280;8235;52.198;9.904;2022-09-03T10:38:39;100716.94;;;22.77;37.03
16255;BME280;8235;52.198;9.904;2022-09-03T10:41:17;100718.81;;;22.77;36.52
16255;BME280;8235;52.198;9.904;2022-09-03T10:44:00;100704.53;;;22.75;36.67
16255;BME280;8235;52.198;9.904;2022-09-03T10:46:38;100715.75;;;22.80;36.62
16255;BME280;8235;52.198;9.904;2022-09-03T10:49:28;100705.38;;;22.83;36.54
16255;BME280;8235;52.198;9.904;2022-09-03T10:52:02;100717.44;;;22.89;36.76
16255;BME280;8235;52.198;9.904;2022-09-03T10:54:42;100699.94;;;22.92;36.71
16255;BME280;8235;52.198;9.904;2022-09-03T10:57:21;100703.63;;;22.99;36.43
16255;BME280;8235;52.198;9.904;2022-09-03T10:59:59;100697.31;;;23.06;36.74
16255;BME280;8235;52.198;9.904;2022-09-03T11:05:40;100700.31;;;23.19;36.04
16255;BME280;8235;52.198;9.904;2022-09-03T11:08:12;100704.19;;;23.25;36.17
16255;BME280;8235;52.198;9.904;2022-09-03T11:10:45;100695.13;;;23.33;36.27
16255;BME280;8235;52.198;9.904;2022-09-03T11:13:17;100692.56;;;23.39;36.01
16255;BME280;8235;52.198;9.904;2022-09-03T11:15:49;100689.97;;;23.46;35.90
16255;BME280;8235;52.198;9.904;2022-09-03T11:18:21;100685.53;;;23.53;36.04
16255;BME280;8235;52.198;9.904;2022-09-03T11:20:51;100689.91;;;23.62;36.03
16255;BME280;8235;52.198;9.904;2022-09-03T11:23:20;100691.69;;;23.70;35.26
16255;BME280;8235;52.198;9.904;2022-09-03T11:25:52;100685.22;;;23.71;34.85
16255;BME280;8235;52.198;9.904;2022-09-03T11:28:28;100683.50;;;23.78;35.47
16255;BME280;8235;52.198;9.904;2022-09-03T11:31:11;100682.56;;;23.85;35.33
16255;BME280;8235;52.198;9.904;2022-09-03T11:34:11;100692.53;;;23.93;34.74
16255;BME280;8235;52.198;9.904;2022-09-03T11:36:38;100685.53;;;23.99;34.54
16255;BME280;8235;52.198;9.904;2022-09-03T11:39:12;100679.53;;;24.03;34.22
16255;BME280;8235;52.198;9.904;2022-09-03T11:41:56;100676.44;;;24.06;34.07
16255;BME280;8235;52.198;9.904;2022-09-03T11:44:23;100676.25;;;24.08;33.69
16255;BME280;8235;52.198;9.904;2022-09-03T11:46:54;100680.97;;;24.14;33.54
16255;BME280;8235;52.198;9.904;2022-09-03T11:49:30;100669.50;;;24.18;34.39
16255;BME280;8235;52.198;9.904;2022-09-03T11:51:59;100674.06;;;24.26;34.20
16255;BME280;8235;52.198;9.904;2022-09-03T11:54:26;100680.00;;;24.30;33.73
16255;BME280;8235;52.198;9.904;2022-09-03T11:57:07;100675.59;;;24.29;33.16
16255;BME280;8235;52.198;9.904;2022-09-03T11:59:36;100664.88;;;24.27;33.13
16255;BME280;8235;52.198;9.904;2022-09-03T12:02:08;100663.19;;;24.26;33.07
16255;BME280;8235;52.198;9.904;2022-09-03T12:04:42;100675.94;;;24.26;33.42
16255;BME280;8235;52.198;9.904;2022-09-03T12:07:25;100661.69;;;24.23;33.09
16255;BME280;8235;52.198;9.904;2022-09-03T12:10:14;100667.97;;;24.24;32.97
16255;BME280;8235;52.198;9.904;2022-09-03T12:13:11;100671.53;;;24.25;33.24
16255;BME280;8235;52.198;9.904;2022-09-03T12:15:57;100664.69;;;24.29;32.87
16255;BME280;8235;52.198;9.904;2022-09-03T12:18:28;100667.06;;;24.32;33.12
16255;BME280;8235;52.198;9.904;2022-09-03T12:21:01;100659.91;;;24.31;32.88
16255;BME280;8235;52.198;9.904;2022-09-03T12:23:29;100662.63;;;24.31;32.57
16255;BME280;8235;52.198;9.904;2022-09-03T12:25:58;100648.56;;;24.27;32.45
16255;BME280;8235;52.198;9.904;2022-09-03T12:28:28;100665.72;;;24.28;32.31
16255;BME280;8235;52.198;9.904;2022-09-03T12:31:05;100644.81;;;24.28;32.32
16255;BME280;8235;52.198;9.904;2022-09-03T12:33:32;100658.88;;;24.32;32.86
16255;BME280;8235;52.198;9.904;2022-09-03T12:36:00;100651.38;;;24.34;32.49
16255;BME280;8235;52.198;9.904;2022-09-03T12:38:28;100660.22;;;24.36;32.73
16255;BME280;8235;52.198;9.904;2022-09-03T12:40:56;100661.88;;;24.37;32.65
16255;BME280;8235;52.198;9.904;2022-09-03T12:43:27;100655.78;;;24.35;32.46
16255;BME280;8235;52.198;9.904;2022-09-03T12:45:54;100659.72;;;24.32;32.40
16255;BME280;8235;52.198;9.904;2022-09-03T12:48:21;100647.53;;;24.28;31.91
16255;BME280;8235;52.198;9.904;2022-09-03T12:50:59;100639.34;;;24.28;32.45
16255;BME280;8235;52.198;9.904;2022-09-03T12:53:30;100641.91;;;24.30;32.36
16255;BME280;8235;52.198;9.904;2022-09-03T12:55:59;100644.25;;;24.33;32.36
16255;BME280;8235;52.198;9.904;2022-09-03T12:58:32;100642.00;;;24.36;32.27
16255;BME280;8235;52.198;9.904;2022-09-03T13:01:04;100638.44;;;24.36;32.12
16255;BME280;8235;52.198;9.904;2022-09-03T13:03:41;100632.34;;;24.34;31.86
16255;BME280;8235;52.198;9.904;2022-09-03T13:06:11;100630.28;;;24.36;31.89
16255;BME280;8235;52.198;9.904;2022-09-03T13:08:40;100631.75;;;24.38;32.17
16255;BME280;8235;52.198;9.904;2022-09-03T13:11:14;100640.94;;;24.37;32.00
16255;BME280;8235;52.198;9.904;2022-09-03T13:13:52;100627.34;;;24.37;32.27
16255;BME280;8235;52.198;9.904;2022-09-03T13:19:48;100623.41;;;24.40;32.22
16255;BME280;8235;52.198;9.904;2022-09-03T13:22:24;100620.13;;;24.44;32.51
16255;BME280;8235;52.198;9.904;2022-09-03T13:25:12;100626.03;;;24.48;32.42
16255;BME280;8235;52.198;9.904;2022-09-03T13:27:45;100619.19;;;24.52;32.02
16255;BME280;8235;52.198;9.904;2022-09-03T13:30:20;100632.22;;;24.56;32.25